Terminal Aerodrome Forecast
Issued by NWS

Home | Current Version | Previous Version | Text Only | Print | Product List | Glossary On
Versions: 1 2 3 4 5 6 7 8 9 10 11 12 13 14 15 16 17 18 19 20
000
FTUS46 KMTR 221100
TAFSTS
TAF
KSTS 221131Z 2212/2312 00000KT P6SM -SHRA OVC007
     FM221500 VRB03KT P6SM OVC007
     FM221900 17007KT P6SM SKC
     FM230200 17005KT P6SM SKC
     FM230700 00000KT P6SM OVC008=

USA.gov is the U.S. government's official web portal to all federal, state and local government web resources and services.